Time;durP1;ratioP1;P1;durP2;ratioP2;P2;SDS_P1;SDS_P2;PMS_P1;PMS_P2;Temp;Humidity;BMP_temperature;BMP_pressure;BME280_temperature;BME280_humidity;BME280_pressure;Samples;Min_cycle;Max_cycle;Signal;HPM_P1;HPM_P2
2021/11/11 00:01:13;;;;;;;108.32;46.92;;;0.90;99.90;;;;;;6247058;22;20011;-82
2021/11/11 00:04:09;;;;;;;108.97;48.33;;;0.90;99.90;;;;;;6267556;22;20024;-85
2021/11/11 00:07:01;;;;;;;102.22;45.97;;;0.90;99.90;;;;;;6265472;22;20035;-85
2021/11/11 00:09:49;;;;;;;101.45;46.35;;;0.90;99.90;;;;;;6265585;23;20043;-88
2021/11/11 00:12:39;;;;;;;102.82;46.58;;;0.80;99.90;;;;;;6269460;22;20031;-88
2021/11/11 00:15:30;;;;;;;113.78;48.70;;;0.70;99.90;;;;;;6245229;23;20020;-88
2021/11/11 00:18:21;;;;;;;101.88;48.85;;;0.70;99.90;;;;;;6259427;23;20032;-88
2021/11/11 00:21:10;;;;;;;102.90;51.55;;;0.80;99.90;;;;;;6228383;23;20030;-88
2021/11/11 00:23:57;;;;;;;115.50;50.67;;;0.70;99.90;;;;;;6249408;23;20020;-89
2021/11/11 00:26:48;;;;;;;100.25;47.88;;;0.70;99.90;;;;;;6252941;23;20027;-88
2021/11/11 00:29:39;;;;;;;101.47;49.08;;;0.70;99.90;;;;;;6249283;23;20031;-88
2021/11/11 00:32:39;;;;;;;113.10;49.42;;;0.60;99.90;;;;;;6251313;23;20103;-88
2021/11/11 00:35:28;;;;;;;113.45;53.97;;;0.70;99.90;;;;;;6229149;23;20323;-87
2021/11/11 00:38:18;;;;;;;105.32;48.20;;;0.70;99.90;;;;;;6246637;23;20331;-89
2021/11/11 00:41:10;;;;;;;98.65;46.72;;;0.70;99.90;;;;;;6224111;23;20113;-88
2021/11/11 00:43:57;;;;;;;103.57;48.67;;;0.60;99.90;;;;;;6246882;23;20119;-87
2021/11/11 00:46:45;;;;;;;102.68;46.83;;;0.60;99.90;;;;;;6246755;23;20032;-89
2021/11/11 00:49:32;;;;;;;98.28;45.95;;;0.50;99.90;;;;;;6246351;23;20371;-87
2021/11/11 00:52:22;;;;;;;104.05;47.80;;;0.40;99.90;;;;;;6250085;22;20020;-90
2021/11/11 00:55:10;;;;;;;98.63;46.38;;;0.30;99.90;;;;;;6257401;23;20024;-89
2021/11/11 00:57:59;;;;;;;112.60;47.80;;;0.30;99.90;;;;;;6260142;23;20024;-85
2021/11/11 01:00:46;;;;;;;97.40;45.67;;;0.20;99.90;;;;;;6256153;23;20024;-88
2021/11/11 01:03:40;;;;;;;105.10;47.60;;;0.20;99.90;;;;;;6251728;23;20020;-88
2021/11/11 01:06:28;;;;;;;121.35;49.75;;;0.20;99.90;;;;;;6230662;23;20095;-88
2021/11/11 01:09:16;;;;;;;108.97;48.72;;;0.20;99.90;;;;;;6248552;23;20024;-87
2021/11/11 01:12:08;;;;;;;117.43;52.60;;;0.30;99.90;;;;;;6232206;23;20360;-88
2021/11/11 01:14:57;;;;;;;109.45;51.53;;;0.30;99.90;;;;;;6232815;23;20016;-89
2021/11/11 01:17:46;;;;;;;130.55;56.75;;;0.40;99.90;;;;;;6251181;23;20020;-89
2021/11/11 01:20:36;;;;;;;125.05;54.63;;;0.40;99.90;;;;;;6257355;23;20035;-88
2021/11/11 01:23:24;;;;;;;118.10;54.97;;;0.50;99.90;;;;;;6260822;23;20028;-88
2021/11/11 01:26:11;;;;;;;120.18;52.55;;;0.50;99.90;;;;;;6257113;23;20020;-88
2021/11/11 01:28:58;;;;;;;125.78;55.25;;;0.50;99.90;;;;;;6258377;23;20043;-86
2021/11/11 01:31:46;;;;;;;133.75;54.45;;;0.50;99.90;;;;;;6255696;23;20028;-87
2021/11/11 01:34:33;;;;;;;126.60;56.17;;;0.40;99.90;;;;;;6255639;23;20282;-87
2021/11/11 01:37:22;;;;;;;130.57;63.05;;;0.40;99.90;;;;;;6224211;23;20028;-87
2021/11/11 01:40:10;;;;;;;123.43;58.08;;;0.40;99.90;;;;;;6247295;23;20098;-88
2021/11/11 01:43:00;;;;;;;148.23;58.15;;;0.30;99.90;;;;;;6246470;23;20030;-89
2021/11/11 01:45:48;;;;;;;132.07;53.55;;;0.30;99.90;;;;;;6225280;23;20107;-88
2021/11/11 01:48:35;;;;;;;116.82;52.88;;;0.30;99.90;;;;;;6247145;23;20151;-88
2021/11/11 01:51:24;;;;;;;121.63;53.13;;;0.20;99.90;;;;;;6245932;23;20020;-88
2021/11/11 01:54:11;;;;;;;130.77;53.67;;;0.10;99.90;;;;;;6228194;23;20085;-88
2021/11/11 01:57:00;;;;;;;114.25;49.92;;;0.10;99.90;;;;;;6245890;23;20353;-88
2021/11/11 01:59:48;;;;;;;114.70;52.03;;;0.10;99.90;;;;;;6246548;23;20050;-88
2021/11/11 02:02:57;;;;;;;127.13;52.13;;;0.10;99.90;;;;;;6247249;23;20028;-87
2021/11/11 02:05:46;;;;;;;132.88;52.92;;;0.10;99.90;;;;;;6225658;23;20029;-88
2021/11/11 02:08:37;;;;;;;125.45;53.33;;;0.10;99.90;;;;;;6226240;23;20331;-87
2021/11/11 02:11:24;;;;;;;117.68;53.20;;;0.00;99.90;;;;;;6226094;23;20084;-86
2021/11/11 02:14:12;;;;;;;124.82;52.20;;;0.10;99.90;;;;;;6227410;23;20020;-88
2021/11/11 02:17:01;;;;;;;119.47;53.13;;;0.20;99.90;;;;;;6245703;23;20380;-87
2021/11/11 02:20:03;;;;;;;122.60;53.65;;;0.30;99.90;;;;;;6244747;23;20028;-88
2021/11/11 02:22:52;;;;;;;136.35;56.70;;;0.40;99.90;;;;;;6225687;23;20028;-88
2021/11/11 02:25:40;;;;;;;128.63;55.00;;;0.40;99.90;;;;;;6248500;23;20024;-88
2021/11/11 02:28:29;;;;;;;123.07;53.70;;;0.40;99.90;;;;;;6246521;23;20115;-87
2021/11/11 02:31:19;;;;;;;119.65;51.15;;;0.40;99.90;;;;;;6224763;23;20122;-88
2021/11/11 02:34:10;;;;;;;126.47;52.55;;;0.30;99.90;;;;;;6248077;23;20024;-87
2021/11/11 02:37:03;;;;;;;84.82;38.30;;;0.30;99.90;;;;;;6225077;23;20036;-87
2021/11/11 02:39:50;;;;;;;118.13;50.88;;;0.20;99.90;;;;;;6247184;23;20020;-88
2021/11/11 02:42:40;;;;;;;113.57;49.95;;;0.00;99.90;;;;;;6245977;23;20027;-89
2021/11/11 02:45:34;;;;;;;120.50;52.45;;;0.00;99.90;;;;;;6246402;23;20024;-88
2021/11/11 02:48:26;;;;;;;115.68;50.53;;;0.00;99.90;;;;;;6245387;23;20103;-89
2021/11/11 02:51:13;;;;;;;127.40;53.03;;;0.10;99.90;;;;;;6206050;23;20407;-87
2021/11/11 02:54:00;;;;;;;122.32;54.33;;;0.20;99.90;;;;;;6246972;23;20078;-89
2021/11/11 02:56:50;;;;;;;117.93;51.15;;;0.20;99.90;;;;;;6246265;23;20400;-88
2021/11/11 02:59:38;;;;;;;111.65;49.20;;;0.20;99.90;;;;;;6245883;23;20451;-88
2021/11/11 03:02:31;;;;;;;126.32;51.17;;;0.20;99.90;;;;;;6247072;23;20426;-87
2021/11/11 03:05:25;;;;;;;124.28;50.15;;;0.20;99.90;;;;;;6247230;23;20032;-87
2021/11/11 03:08:15;;;;;;;115.63;48.33;;;0.20;99.90;;;;;;6224962;23;20094;-89
2021/11/11 03:11:07;;;;;;;97.15;35.58;;;0.10;99.90;;;;;;6246292;23;20028;-88
2021/11/11 03:13:55;;;;;;;104.65;47.53;;;0.00;99.90;;;;;;6246840;23;20415;-88
2021/11/11 03:16:42;;;;;;;105.57;46.20;;;0.00;99.90;;;;;;6245930;23;20048;-88
2021/11/11 03:19:33;;;;;;;102.57;46.53;;;0.00;99.90;;;;;;6245495;23;20400;-87
2021/11/11 03:22:24;;;;;;;118.13;47.40;;;0.00;99.90;;;;;;6246414;23;20169;-88
2021/11/11 03:25:15;;;;;;;111.53;46.03;;;-0.10;99.90;;;;;;6226175;23;20039;-88
2021/11/11 03:28:03;;;;;;;121.43;46.65;;;-0.10;99.90;;;;;;6247184;23;20415;-87
2021/11/11 03:30:51;;;;;;;126.60;50.38;;;0.00;99.90;;;;;;6224220;23;20103;-89
2021/11/11 03:33:39;;;;;;;118.32;49.22;;;0.00;99.90;;;;;;6248421;23;20198;-87
2021/11/11 03:36:27;;;;;;;129.80;51.67;;;0.10;99.90;;;;;;6247395;23;20099;-88
2021/11/11 03:39:17;;;;;;;119.93;50.13;;;0.10;99.90;;;;;;6226553;23;20429;-85
2021/11/11 03:42:15;;;;;;;122.70;50.65;;;0.10;99.90;;;;;;6228029;23;20028;-88
2021/11/11 03:45:07;;;;;;;112.55;49.58;;;0.00;99.90;;;;;;6227712;23;20028;-87
2021/11/11 03:47:57;;;;;;;131.73;51.53;;;0.00;99.90;;;;;;6229187;23;20031;-87
2021/11/11 03:50:45;;;;;;;139.60;50.78;;;0.00;99.90;;;;;;6227682;23;20289;-88
2021/11/11 03:53:33;;;;;;;129.73;52.35;;;0.00;99.90;;;;;;6247837;23;20099;-87
2021/11/11 03:56:21;;;;;;;134.27;54.92;;;0.10;99.90;;;;;;6247761;23;20103;-87
2021/11/11 03:59:10;;;;;;;141.05;57.50;;;0.20;99.90;;;;;;6249957;23;20028;-87
2021/11/11 04:01:58;;;;;;;135.43;56.53;;;0.20;99.90;;;;;;6251037;23;20024;-87
2021/11/11 04:04:45;;;;;;;142.18;55.80;;;0.30;99.90;;;;;;6226810;23;20024;-89
2021/11/11 04:07:33;;;;;;;149.60;58.13;;;0.20;99.90;;;;;;6248088;23;20388;-89
2021/11/11 04:10:21;;;;;;;151.88;58.00;;;0.30;99.90;;;;;;6246337;23;20032;-87
2021/11/11 04:13:16;;;;;;;138.05;55.78;;;0.30;99.90;;;;;;6255247;23;20035;-87
2021/11/11 04:16:05;;;;;;;144.27;55.28;;;0.30;99.90;;;;;;6260320;23;20043;-87
2021/11/11 04:18:55;;;;;;;152.73;55.03;;;0.30;99.90;;;;;;6240479;23;20020;-88
2021/11/11 04:21:47;;;;;;;131.13;51.33;;;0.20;99.90;;;;;;6240927;23;20024;-85
2021/11/11 04:24:35;;;;;;;138.98;54.53;;;0.10;99.90;;;;;;6246181;22;20023;-84
2021/11/11 04:27:51;;;;;;;140.45;53.28;;;0.10;99.90;;;;;;6246362;23;20063;-86
2021/11/11 04:30:41;;;;;;;137.50;53.58;;;0.10;99.90;;;;;;6236474;23;20065;-88
2021/11/11 04:33:29;;;;;;;149.43;60.92;;;0.10;99.90;;;;;;6258093;23;20024;-87
2021/11/11 04:42:37;;;;;;;158.32;57.40;;;0.10;99.90;;;;;;6249305;23;20028;-88
2021/11/11 05:03:39;;;;;;;164.30;60.05;;;0.40;99.90;;;;;;6250413;23;20064;-87
2021/11/11 05:06:37;;;;;;;148.75;56.00;;;0.30;99.90;;;;;;6253211;23;20051;-88
2021/11/11 05:09:24;;;;;;;146.65;56.03;;;0.20;99.90;;;;;;6248745;23;20028;-87
2021/11/11 05:12:13;;;;;;;138.00;54.42;;;0.10;99.90;;;;;;6247354;23;20313;-88
2021/11/11 05:15:01;;;;;;;144.63;55.00;;;0.00;99.90;;;;;;6246958;23;20024;-88
2021/11/11 05:17:50;;;;;;;149.27;58.40;;;0.00;99.90;;;;;;6226737;23;20024;-88
2021/11/11 05:20:40;;;;;;;140.85;57.20;;;0.10;99.90;;;;;;6248869;23;20039;-88
2021/11/11 05:23:30;;;;;;;139.45;55.38;;;0.30;99.90;;;;;;6248464;23;20042;-87
2021/11/11 05:26:18;;;;;;;139.50;57.47;;;0.40;99.90;;;;;;6250144;23;20028;-89
2021/11/11 05:29:06;;;;;;;150.73;58.15;;;0.50;99.90;;;;;;6228015;23;20035;-87
2021/11/11 05:31:58;;;;;;;153.85;59.55;;;0.50;99.90;;;;;;6232694;23;20314;-88
2021/11/11 05:34:46;;;;;;;160.48;60.75;;;0.50;99.90;;;;;;6254334;23;20020;-88
2021/11/11 05:37:33;;;;;;;162.50;64.60;;;0.60;99.90;;;;;;6254763;23;20020;-88
2021/11/11 05:58:17;;;;;;;156.02;60.40;;;0.50;99.90;;;;;;6252042;22;20028;-88
2021/11/11 06:01:08;;;;;;;153.07;59.85;;;0.60;99.90;;;;;;6233213;23;20100;-88
2021/11/11 06:04:01;;;;;;;136.13;57.05;;;0.60;99.90;;;;;;6233289;23;20038;-88
2021/11/11 06:06:55;;;;;;;139.23;55.33;;;0.60;99.90;;;;;;6232003;23;20031;-88
2021/11/11 06:09:46;;;;;;;144.13;59.03;;;0.50;99.90;;;;;;6260416;23;20032;-86
2021/11/11 06:12:33;;;;;;;128.57;54.92;;;0.30;99.90;;;;;;6237535;23;20092;-88
2021/11/11 06:15:21;;;;;;;147.00;58.35;;;0.30;99.90;;;;;;6251324;23;20020;-87
2021/11/11 06:18:11;;;;;;;149.77;55.78;;;0.30;99.90;;;;;;6249146;23;20115;-88
2021/11/11 06:21:07;;;;;;;129.43;53.17;;;0.20;99.90;;;;;;6230551;23;20024;-89
2021/11/11 06:23:57;;;;;;;122.25;51.95;;;0.30;99.90;;;;;;6258262;23;20034;-88
2021/11/11 06:26:46;;;;;;;143.07;54.63;;;0.40;99.90;;;;;;6257210;23;20081;-86
2021/11/11 06:29:34;;;;;;;151.65;56.30;;;0.40;99.90;;;;;;6243236;23;20107;-87
2021/11/11 06:32:23;;;;;;;137.07;56.80;;;0.40;99.90;;;;;;6238123;23;20059;-86
2021/11/11 06:35:34;;;;;;;149.10;55.90;;;0.50;99.90;;;;;;6256069;23;20023;-85
2021/11/11 07:54:23;;;;;;;87.90;43.60;;;2.80;99.90;;;;;;6256584;23;20015;-88
2021/11/11 11:09:28;;;;;;;22.73;14.80;;;19.30;53.80;;;;;;6213877;23;20051;-89
2021/11/11 11:12:29;;;;;;;18.35;13.15;;;19.10;52.70;;;;;;6213628;23;20122;-89
2021/11/11 11:15:54;;;;;;;17.85;13.27;;;20.30;51.40;;;;;;6215628;23;20024;-88
2021/11/11 11:18:49;;;;;;;21.52;13.30;;;22.00;47.50;;;;;;6180138;23;20065;-89
2021/11/11 11:21:45;;;;;;;17.38;13.25;;;23.00;46.40;;;;;;6210779;23;20024;-89
2021/11/11 11:24:35;;;;;;;24.70;14.45;;;23.80;43.30;;;;;;6212126;23;20056;-88
2021/11/11 11:32:42;;;;;;;;;;;;;;;;;;;;;
2021/11/11 11:53:28;;;;;;;;;;;;;;;;;;;;;
2021/11/11 15:46:36;;;;;;;50.25;29.38;;;9.30;92.40;;;;;;6244936;23;20429;-90
2021/11/11 16:26:10;;;;;;;56.58;30.35;;;6.10;99.90;;;;;;6123790;23;20025;-90
2021/11/11 16:29:03;;;;;;;51.03;30.83;;;6.00;99.90;;;;;;6123605;23;20128;-88
2021/11/11 16:32:16;;;;;;;55.63;32.47;;;5.90;99.90;;;;;;6124497;23;20025;-89
2021/11/11 16:35:08;;;;;;;55.38;31.35;;;5.70;99.90;;;;;;6246678;23;20035;-91
2021/11/11 16:37:59;;;;;;;54.28;33.15;;;5.70;99.90;;;;;;6246730;23;20027;-86
2021/11/11 16:40:54;;;;;;;55.58;31.75;;;5.60;99.90;;;;;;6227404;23;20031;-90
2021/11/11 16:43:44;;;;;;;56.42;34.28;;;5.40;99.90;;;;;;6226231;23;20028;-90
2021/11/11 16:46:44;;;;;;;55.17;33.15;;;5.40;99.90;;;;;;6247387;22;20024;-87
2021/11/11 16:49:43;;;;;;;66.38;36.10;;;5.30;99.90;;;;;;6244441;23;20023;-87
2021/11/11 16:52:35;;;;;;;71.30;38.58;;;5.10;99.90;;;;;;6246338;23;20035;-90
2021/11/11 16:55:26;;;;;;;70.45;38.22;;;5.00;99.90;;;;;;6226674;23;20024;-89
2021/11/11 16:58:24;;;;;;;63.22;37.83;;;4.90;99.90;;;;;;6224236;23;20052;-89
2021/11/11 17:01:12;;;;;;;62.15;37.67;;;4.90;99.90;;;;;;6223812;23;20024;-88
2021/11/11 17:04:05;;;;;;;72.47;40.25;;;4.80;99.90;;;;;;6225117;23;20399;-90
2021/11/11 17:06:59;;;;;;;78.47;45.03;;;4.80;99.90;;;;;;6224837;23;20326;-90
2021/11/11 17:09:50;;;;;;;90.05;46.55;;;4.80;99.90;;;;;;6224878;23;20123;-90
2021/11/11 17:12:37;;;;;;;91.95;49.08;;;4.80;99.90;;;;;;6223203;23;20027;-89
2021/11/11 17:15:28;;;;;;;95.43;49.15;;;4.80;99.90;;;;;;6225180;23;20060;-89
2021/11/11 17:18:33;;;;;;;;;;;;;;;;;;;;;
2021/11/11 17:21:23;;;;;;;86.53;47.67;;;4.90;99.90;;;;;;6245824;23;20314;-90
2021/11/11 17:24:15;;;;;;;86.35;48.15;;;4.80;99.90;;;;;;6252396;23;20032;-89
2021/11/11 17:30:13;;;;;;;94.07;50.10;;;4.50;99.90;;;;;;6263932;23;20152;-85
2021/11/11 17:33:01;;;;;;;88.18;48.50;;;4.40;99.90;;;;;;6257911;23;20035;-84
2021/11/11 17:35:51;;;;;;;83.18;47.60;;;4.30;99.90;;;;;;6239857;23;20028;-84
2021/11/11 17:38:40;;;;;;;85.97;47.17;;;4.20;99.90;;;;;;6263573;22;20020;-88
2021/11/11 17:41:30;;;;;;;94.53;51.97;;;4.10;99.90;;;;;;6240832;23;20024;-86
2021/11/11 17:44:18;;;;;;;105.15;54.15;;;4.10;99.90;;;;;;6263735;23;20110;-83
2021/11/11 17:47:08;;;;;;;101.80;51.65;;;4.10;99.90;;;;;;6269435;22;20027;-83
2021/11/11 17:49:58;;;;;;;101.10;53.80;;;4.10;99.90;;;;;;6266823;22;20012;-82
2021/11/11 17:52:53;;;;;;;102.88;54.55;;;4.20;99.90;;;;;;6247846;22;20031;-83
2021/11/11 17:55:47;;;;;;;106.63;57.25;;;4.20;99.90;;;;;;6239663;23;20036;-84
2021/11/11 17:58:39;;;;;;;103.05;56.72;;;4.10;99.90;;;;;;6260716;23;20027;-84
2021/11/11 18:01:33;;;;;;;77.45;42.55;;;4.00;99.90;;;;;;6258334;23;20086;-85
2021/11/11 18:04:22;;;;;;;105.45;56.20;;;3.80;99.90;;;;;;6260189;23;20028;-86
2021/11/11 18:07:31;;;;;;;99.30;54.25;;;3.80;99.90;;;;;;6259146;23;20028;-83
2021/11/11 18:10:28;;;;;;;95.70;52.00;;;3.70;99.90;;;;;;6263477;23;20365;-85
2021/11/11 18:13:41;;;;;;;106.07;53.10;;;3.60;99.90;;;;;;6259678;23;20024;-85
2021/11/11 18:16:31;;;;;;;99.78;51.90;;;3.50;99.90;;;;;;6256386;23;20024;-85
2021/11/11 18:19:22;;;;;;;103.65;52.40;;;3.40;99.90;;;;;;6256948;23;20020;-83
2021/11/11 18:22:09;;;;;;;96.03;50.15;;;3.30;99.90;;;;;;6264350;22;20027;-84
2021/11/11 18:25:02;;;;;;;94.53;51.50;;;3.20;99.90;;;;;;6256576;23;20020;-86
2021/11/11 18:27:52;;;;;;;109.43;54.38;;;3.20;99.90;;;;;;6233974;23;20043;-86
2021/11/11 18:30:43;;;;;;;108.00;57.83;;;3.20;99.90;;;;;;6256075;23;20016;-86
2021/11/11 18:33:51;;;;;;;108.43;56.67;;;3.20;99.90;;;;;;6238078;23;20034;-85
2021/11/11 18:36:43;;;;;;;115.57;55.03;;;3.20;99.90;;;;;;6230200;23;20024;-87
2021/11/11 18:39:32;;;;;;;107.95;56.42;;;3.10;99.90;;;;;;6231464;23;20024;-86
2021/11/11 18:42:22;;;;;;;105.85;54.60;;;3.00;99.90;;;;;;6232947;23;20052;-87
2021/11/11 18:45:12;;;;;;;110.50;54.42;;;3.00;99.90;;;;;;6234748;23;20035;-87
2021/11/11 18:51:31;;;;;;;104.57;54.92;;;3.00;99.90;;;;;;6244704;23;20099;-87
2021/11/11 18:54:18;;;;;;;104.47;56.42;;;2.90;99.90;;;;;;6251324;23;20027;-87
2021/11/11 18:57:06;;;;;;;108.38;56.85;;;2.90;99.90;;;;;;6254500;23;20419;-87
2021/11/11 18:59:55;;;;;;;112.78;56.33;;;2.90;99.90;;;;;;6254223;23;20026;-84
2021/11/11 19:02:43;;;;;;;110.20;56.60;;;2.80;99.90;;;;;;6229100;23;20033;-85
2021/11/11 19:05:38;;;;;;;122.05;60.08;;;2.70;99.90;;;;;;6232070;23;20431;-85
2021/11/11 19:08:29;;;;;;;122.28;60.65;;;2.70;99.90;;;;;;6254897;23;20024;-87
2021/11/11 19:11:23;;;;;;;115.65;59.25;;;2.70;99.90;;;;;;6231450;23;20039;-84
2021/11/11 19:14:17;;;;;;;112.97;57.92;;;2.60;99.90;;;;;;6235975;23;20085;-87
2021/11/11 19:20:01;;;;;;;133.85;60.22;;;2.50;99.90;;;;;;6254192;23;20035;-86
2021/11/11 19:22:53;;;;;;;119.93;60.83;;;2.40;99.90;;;;;;6214756;23;20110;-86
2021/11/11 19:25:43;;;;;;;118.68;60.97;;;2.50;99.90;;;;;;6259684;23;20024;-87
2021/11/11 19:28:30;;;;;;;121.57;60.92;;;2.40;99.90;;;;;;6258714;23;20028;-85
2021/11/11 19:31:20;;;;;;;117.82;60.50;;;2.40;99.90;;;;;;6253705;23;20426;-85
2021/11/11 19:37:37;;;;;;;119.07;60.63;;;2.40;99.90;;;;;;6256821;23;20047;-85
2021/11/11 19:43:31;;;;;;;117.28;59.60;;;2.20;99.90;;;;;;6254229;23;20024;-85
2021/11/11 19:46:44;;;;;;;123.38;61.40;;;2.20;99.90;;;;;;6256052;23;20027;-86
2021/11/11 19:55:56;;;;;;;146.02;67.97;;;2.20;99.90;;;;;;6258630;23;20027;-85
2021/11/11 20:01:42;;;;;;;145.68;70.78;;;2.20;99.90;;;;;;6239573;23;20028;-86
2021/11/11 20:10:21;;;;;;;140.65;65.90;;;2.00;99.90;;;;;;6257066;23;20038;-86
2021/11/11 20:19:29;;;;;;;142.15;68.60;;;1.80;99.90;;;;;;6259710;23;20445;-86
2021/11/11 20:47:37;;;;;;;172.55;76.50;;;1.70;99.90;;;;;;6262556;23;20074;-87
2021/11/11 20:56:39;;;;;;;175.25;82.72;;;1.60;99.90;;;;;;6247615;23;20036;-86
2021/11/11 20:59:47;;;;;;;181.98;83.93;;;1.50;99.90;;;;;;6240508;23;20051;-88
2021/11/11 21:02:45;;;;;;;176.48;80.38;;;1.40;99.90;;;;;;6222292;23;20020;-89
2021/11/11 21:06:10;;;;;;;179.05;82.38;;;1.40;99.90;;;;;;6262533;23;20466;-88
2021/11/11 21:09:15;;;;;;;169.52;82.60;;;1.30;99.90;;;;;;6260568;23;20028;-89
2021/11/11 21:12:27;;;;;;;183.65;85.45;;;1.40;99.90;;;;;;6258874;23;20024;-88
2021/11/11 21:18:12;;;;;;;225.75;112.15;;;1.40;99.90;;;;;;6262867;23;20035;-88
2021/11/11 21:21:01;;;;;;;180.20;82.05;;;1.40;99.90;;;;;;6240018;23;20203;-88
2021/11/11 21:23:56;;;;;;;183.80;79.80;;;1.40;99.90;;;;;;6266501;22;20027;-85
2021/11/11 21:26:45;;;;;;;165.52;76.90;;;1.40;99.90;;;;;;6267978;22;20038;-85
2021/11/11 21:29:33;;;;;;;182.00;80.85;;;1.40;99.90;;;;;;6247434;22;20076;-84
2021/11/11 21:32:23;;;;;;;162.75;75.43;;;1.30;99.90;;;;;;6268705;22;20031;-88
2021/11/11 21:35:35;;;;;;;148.45;70.57;;;1.20;99.90;;;;;;6265858;23;20025;-88
2021/11/11 21:38:31;;;;;;;160.38;74.25;;;1.10;99.90;;;;;;6243681;23;20025;-88
2021/11/11 21:41:25;;;;;;;167.80;70.45;;;1.10;99.90;;;;;;6242344;23;20031;-86
2021/11/11 21:44:18;;;;;;;152.40;68.43;;;1.10;99.90;;;;;;6241596;23;20043;-87
2021/11/11 21:47:09;;;;;;;163.85;72.50;;;1.10;99.90;;;;;;6258809;23;20063;-86
2021/11/11 21:50:00;;;;;;;157.88;73.40;;;1.00;99.90;;;;;;6259297;23;20039;-88
2021/11/11 21:53:05;;;;;;;159.77;71.88;;;1.00;99.90;;;;;;6240148;23;20084;-87
2021/11/11 21:56:11;;;;;;;151.48;70.53;;;1.00;99.90;;;;;;6240050;23;20047;-87
2021/11/11 21:59:24;;;;;;;144.00;66.95;;;1.00;99.90;;;;;;6249552;23;20020;-88
2021/11/11 22:02:18;;;;;;;133.85;63.25;;;0.90;99.90;;;;;;6225299;23;20020;-88
2021/11/11 22:29:44;;;;;;;178.93;74.90;;;0.70;99.90;;;;;;6244483;23;20004;-85
2021/11/11 22:32:17;;;;;;;167.48;71.88;;;0.80;99.90;;;;;;6245064;22;20327;-85
2021/11/11 22:35:08;;;;;;;179.35;75.50;;;0.70;99.90;;;;;;6246251;23;20031;-85
2021/11/11 22:37:59;;;;;;;180.77;76.00;;;0.60;99.90;;;;;;6244936;23;20052;-84
2021/11/11 22:40:47;;;;;;;162.68;72.53;;;0.60;99.90;;;;;;6241779;23;20339;-85
2021/11/11 22:43:34;;;;;;;172.25;74.82;;;0.60;99.90;;;;;;6243884;23;20082;-85
2021/11/11 22:46:22;;;;;;;171.45;74.90;;;0.50;99.90;;;;;;6244822;23;20043;-85
2021/11/11 22:49:09;;;;;;;173.68;78.53;;;0.50;99.90;;;;;;6242874;23;20285;-84
2021/11/11 22:51:58;;;;;;;184.70;79.60;;;0.40;99.90;;;;;;6222828;23;20335;-85
2021/11/11 22:54:55;;;;;;;190.27;80.70;;;0.50;99.90;;;;;;6225959;23;20622;-84
2021/11/11 23:01:01;;;;;;;185.40;78.77;;;0.50;99.90;;;;;;6246976;23;20027;-86
2021/11/11 23:07:16;;;;;;;201.95;85.43;;;0.40;99.90;;;;;;6243308;23;20024;-85
2021/11/11 23:13:21;;;;;;;183.88;77.60;;;0.40;99.90;;;;;;6246373;23;20043;-85
2021/11/11 23:32:06;;;;;;;163.00;69.07;;;0.20;99.90;;;;;;6246045;23;20078;-85
2021/11/11 23:34:25;;;;;;;174.13;71.60;;;0.20;99.90;;;;;;6246306;22;20028;-84
2021/11/11 23:37:17;;;;;;;183.70;75.18;;;0.10;99.90;;;;;;6224456;23;20039;-84
2021/11/11 23:40:05;;;;;;;179.40;73.07;;;0.10;99.90;;;;;;6245652;23;20020;-85
2021/11/11 23:42:54;;;;;;;203.45;83.32;;;0.20;99.90;;;;;;6244869;23;20086;-84
2021/11/11 23:45:42;;;;;;;209.85;86.75;;;0.30;99.90;;;;;;6244956;23;20020;-85
2021/11/11 23:48:30;;;;;;;220.80;88.30;;;0.30;99.90;;;;;;6245085;22;20020;-86
